PHKO METAR and TAF | Updated Today

PHKO METAR

Ellison Onizuka Kona International At Keahole Airport

Observation time: 16 min. ago

PHKO 292053Z 20009KT 10SM FEW050 29/21 A3003 RMK AO2 SLP168 T02940206 50002

Need help? Read our tutorial on how to read METARs or read the parsed version below.

Ellison Onizuka Kona International At Keahole Airport (PHKO) METAR

  • Weather conditions on Thu, 29 Sep 2022 20:53:00 +0000 (16 min. ago):
  • Present conditions: Dry
  • Clouds: A few at 1524 meters
  • Visibility: 16093 meters
  • Wind: 200 degrees at 9 knots
  • Temperature: 29 celsius
  • Dew point: 21 celsius
  • Pressure: 30.03 inHg
  • Remarks: AO2 SLP168 T02940206 50002


Useful to know...

PHKO TAF

Ellison Onizuka Kona International At Keahole Airport

PHKO 291724Z 2918/3018 VRB06KT P6SM FEW050 FM292000 21010KT P6SM FEW035 BKN060 FM300400 VRB06KT P6SM FEW030 BKN050
Observation time: 3:45 hr. ago
Need help? Read our tutorial on how to read TAFs or read the parsed version below.

Parsed version of TAF for Ellison Onizuka Kona International At Keahole Airport (PHKO)

  • From 29 September at 18:00 UTC, to day 30 of the month at 18:00 UTC
  • Clouds: A few at 1524 meters
  • Wind: Variable at 6
  • From day 29 of the month at 20:00 UTC
  • Clouds: A few at 1067 meters; broken sky at 1829 meters
  • Wind: 210 degrees at 10
  • From day 30 of the month at 04:00 UTC
  • Clouds: A few at 914 meters; broken sky at 1524 meters
  • Wind: Variable at 6